sensor_id;sensor_type;location;lat;lon;timestamp;P1;durP1;ratioP1;P2;durP2;ratioP2
5058;SDS011;2548;52.050;11.036;2022-12-29T00:00:18;1.85;;;1.75;;
5058;SDS011;2548;52.050;11.036;2022-12-29T00:02:47;1.50;;;1.40;;
5058;SDS011;2548;52.050;11.036;2022-12-29T00:05:14;1.30;;;1.27;;
5058;SDS011;2548;52.050;11.036;2022-12-29T00:07:42;1.23;;;1.15;;
5058;SDS011;2548;52.050;11.036;2022-12-29T00:10:09;4.22;;;1.35;;
5058;SDS011;2548;52.050;11.036;2022-12-29T00:12:37;1.58;;;1.48;;
5058;SDS011;2548;52.050;11.036;2022-12-29T00:15:22;1.30;;;1.13;;
5058;SDS011;2548;52.050;11.036;2022-12-29T00:18:06;1.70;;;1.60;;
5058;SDS011;2548;52.050;11.036;2022-12-29T00:20:34;2.20;;;1.75;;
5058;SDS011;2548;52.050;11.036;2022-12-29T00:23:19;1.33;;;1.23;;
5058;SDS011;2548;52.050;11.036;2022-12-29T00:26:16;1.15;;;1.15;;
5058;SDS011;2548;52.050;11.036;2022-12-29T00:29:02;1.30;;;1.25;;
5058;SDS011;2548;52.050;11.036;2022-12-29T00:31:47;1.92;;;1.83;;
5058;SDS011;2548;52.050;11.036;2022-12-29T00:34:48;1.52;;;1.42;;
5058;SDS011;2548;52.050;11.036;2022-12-29T00:37:33;1.60;;;1.50;;
5058;SDS011;2548;52.050;11.036;2022-12-29T00:40:14;1.45;;;1.35;;
5058;SDS011;2548;52.050;11.036;2022-12-29T00:43:00;1.98;;;1.67;;
5058;SDS011;2548;52.050;11.036;2022-12-29T00:45:45;1.52;;;1.40;;
5058;SDS011;2548;52.050;11.036;2022-12-29T00:48:12;3.25;;;1.85;;
5058;SDS011;2548;52.050;11.036;2022-12-29T00:50:41;2.00;;;1.90;;
5058;SDS011;2548;52.050;11.036;2022-12-29T00:53:07;1.75;;;1.65;;
5058;SDS011;2548;52.050;11.036;2022-12-29T00:55:36;1.67;;;1.67;;
5058;SDS011;2548;52.050;11.036;2022-12-29T00:58:03;2.08;;;1.85;;
5058;SDS011;2548;52.050;11.036;2022-12-29T01:00:31;2.13;;;1.27;;
5058;SDS011;2548;52.050;11.036;2022-12-29T01:02:58;1.70;;;1.58;;
5058;SDS011;2548;52.050;11.036;2022-12-29T01:05:26;1.33;;;1.23;;
5058;SDS011;2548;52.050;11.036;2022-12-29T01:07:54;1.67;;;1.58;;
5058;SDS011;2548;52.050;11.036;2022-12-29T01:10:23;5.35;;;1.27;;
5058;SDS011;2548;52.050;11.036;2022-12-29T01:12:49;2.35;;;1.83;;
5058;SDS011;2548;52.050;11.036;2022-12-29T01:15:17;2.00;;;1.65;;
5058;SDS011;2548;52.050;11.036;2022-12-29T01:17:44;1.90;;;1.80;;
5058;SDS011;2548;52.050;11.036;2022-12-29T01:20:12;3.42;;;1.70;;
5058;SDS011;2548;52.050;11.036;2022-12-29T01:22:40;2.25;;;1.92;;
5058;SDS011;2548;52.050;11.036;2022-12-29T01:25:09;1.67;;;1.58;;
5058;SDS011;2548;52.050;11.036;2022-12-29T01:27:37;2.55;;;2.20;;
5058;SDS011;2548;52.050;11.036;2022-12-29T01:30:05;2.90;;;1.88;;
5058;SDS011;2548;52.050;11.036;2022-12-29T01:32:33;5.00;;;1.67;;
5058;SDS011;2548;52.050;11.036;2022-12-29T01:35:01;1.80;;;1.70;;
5058;SDS011;2548;52.050;11.036;2022-12-29T01:37:29;1.80;;;1.70;;
5058;SDS011;2548;52.050;11.036;2022-12-29T01:39:56;1.60;;;1.50;;
5058;SDS011;2548;52.050;11.036;2022-12-29T01:42:25;4.72;;;2.28;;
5058;SDS011;2548;52.050;11.036;2022-12-29T01:44:53;3.22;;;2.17;;
5058;SDS011;2548;52.050;11.036;2022-12-29T01:47:24;1.98;;;1.88;;
5058;SDS011;2548;52.050;11.036;2022-12-29T01:49:57;4.57;;;2.45;;
5058;SDS011;2548;52.050;11.036;2022-12-29T01:52:29;2.15;;;2.00;;
5058;SDS011;2548;52.050;11.036;2022-12-29T01:54:59;1.95;;;1.85;;
5058;SDS011;2548;52.050;11.036;2022-12-29T01:57:30;1.52;;;1.40;;
5058;SDS011;2548;52.050;11.036;2022-12-29T02:00:02;2.30;;;2.10;;
5058;SDS011;2548;52.050;11.036;2022-12-29T02:02:38;1.88;;;1.77;;
5058;SDS011;2548;52.050;11.036;2022-12-29T02:05:10;2.83;;;2.40;;
5058;SDS011;2548;52.050;11.036;2022-12-29T02:07:44;2.38;;;1.77;;
5058;SDS011;2548;52.050;11.036;2022-12-29T02:10:13;2.20;;;1.98;;
5058;SDS011;2548;52.050;11.036;2022-12-29T02:12:42;2.25;;;1.65;;
5058;SDS011;2548;52.050;11.036;2022-12-29T02:15:09;3.72;;;1.35;;
5058;SDS011;2548;52.050;11.036;2022-12-29T02:17:41;1.60;;;1.50;;
5058;SDS011;2548;52.050;11.036;2022-12-29T02:23:25;3.92;;;2.10;;
5058;SDS011;2548;52.050;11.036;2022-12-29T02:29:07;1.85;;;1.50;;
5058;SDS011;2548;52.050;11.036;2022-12-29T02:31:55;2.58;;;2.38;;
5058;SDS011;2548;52.050;11.036;2022-12-29T02:34:26;2.65;;;1.83;;
5058;SDS011;2548;52.050;11.036;2022-12-29T02:37:03;2.63;;;1.70;;
5058;SDS011;2548;52.050;11.036;2022-12-29T02:39:37;2.65;;;1.40;;
5058;SDS011;2548;52.050;11.036;2022-12-29T02:42:09;1.83;;;1.73;;
5058;SDS011;2548;52.050;11.036;2022-12-29T02:44:51;6.78;;;2.30;;
5058;SDS011;2548;52.050;11.036;2022-12-29T02:47:25;1.88;;;1.70;;
5058;SDS011;2548;52.050;11.036;2022-12-29T02:49:59;4.18;;;1.90;;
5058;SDS011;2548;52.050;11.036;2022-12-29T02:52:34;1.48;;;1.48;;
5058;SDS011;2548;52.050;11.036;2022-12-29T02:55:05;2.10;;;1.80;;
5058;SDS011;2548;52.050;11.036;2022-12-29T02:57:33;2.33;;;1.77;;
5058;SDS011;2548;52.050;11.036;2022-12-29T03:00:03;2.33;;;1.63;;
5058;SDS011;2548;52.050;11.036;2022-12-29T03:02:39;3.40;;;2.13;;
5058;SDS011;2548;52.050;11.036;2022-12-29T03:08:34;3.05;;;1.90;;
5058;SDS011;2548;52.050;11.036;2022-12-29T03:11:13;1.90;;;1.70;;
5058;SDS011;2548;52.050;11.036;2022-12-29T03:13:56;2.58;;;2.42;;
5058;SDS011;2548;52.050;11.036;2022-12-29T03:16:47;1.83;;;1.73;;
5058;SDS011;2548;52.050;11.036;2022-12-29T03:19:21;2.80;;;2.20;;
5058;SDS011;2548;52.050;11.036;2022-12-29T03:21:54;7.95;;;2.33;;
5058;SDS011;2548;52.050;11.036;2022-12-29T03:24:47;1.90;;;1.50;;
5058;SDS011;2548;52.050;11.036;2022-12-29T03:27:19;2.10;;;2.00;;
5058;SDS011;2548;52.050;11.036;2022-12-29T03:29:52;1.70;;;1.60;;
5058;SDS011;2548;52.050;11.036;2022-12-29T03:32:24;2.30;;;2.20;;
5058;SDS011;2548;52.050;11.036;2022-12-29T03:34:57;3.95;;;1.73;;
5058;SDS011;2548;52.050;11.036;2022-12-29T03:37:27;1.83;;;1.73;;
5058;SDS011;2548;52.050;11.036;2022-12-29T03:39:58;3.60;;;2.25;;
5058;SDS011;2548;52.050;11.036;2022-12-29T03:42:26;3.60;;;2.13;;
5058;SDS011;2548;52.050;11.036;2022-12-29T03:44:58;1.92;;;1.73;;
5058;SDS011;2548;52.050;11.036;2022-12-29T03:47:26;1.92;;;1.83;;
5058;SDS011;2548;52.050;11.036;2022-12-29T03:49:53;2.70;;;1.40;;
5058;SDS011;2548;52.050;11.036;2022-12-29T03:52:22;6.78;;;2.30;;
5058;SDS011;2548;52.050;11.036;2022-12-29T03:54:52;2.45;;;1.58;;
5058;SDS011;2548;52.050;11.036;2022-12-29T03:57:19;1.60;;;1.50;;
5058;SDS011;2548;52.050;11.036;2022-12-29T03:59:54;4.40;;;2.00;;
5058;SDS011;2548;52.050;11.036;2022-12-29T04:02:22;3.85;;;2.08;;
5058;SDS011;2548;52.050;11.036;2022-12-29T04:04:49;2.38;;;2.28;;
5058;SDS011;2548;52.050;11.036;2022-12-29T04:07:17;3.95;;;2.35;;
5058;SDS011;2548;52.050;11.036;2022-12-29T04:09:46;1.65;;;1.55;;
5058;SDS011;2548;52.050;11.036;2022-12-29T04:12:20;2.75;;;2.25;;
5058;SDS011;2548;52.050;11.036;2022-12-29T04:14:47;2.22;;;2.05;;
5058;SDS011;2548;52.050;11.036;2022-12-29T04:17:15;1.23;;;1.23;;
5058;SDS011;2548;52.050;11.036;2022-12-29T04:19:45;3.00;;;1.80;;
5058;SDS011;2548;52.050;11.036;2022-12-29T04:22:12;1.50;;;1.40;;
5058;SDS011;2548;52.050;11.036;2022-12-29T04:24:40;2.20;;;2.00;;
5058;SDS011;2548;52.050;11.036;2022-12-29T04:27:11;4.53;;;1.90;;
5058;SDS011;2548;52.050;11.036;2022-12-29T04:30:16;5.38;;;1.65;;
5058;SDS011;2548;52.050;11.036;2022-12-29T04:32:58;1.60;;;1.50;;
5058;SDS011;2548;52.050;11.036;2022-12-29T04:35:27;2.55;;;1.13;;
5058;SDS011;2548;52.050;11.036;2022-12-29T04:37:55;1.67;;;1.58;;
5058;SDS011;2548;52.050;11.036;2022-12-29T04:40:23;1.67;;;1.65;;
5058;SDS011;2548;52.050;11.036;2022-12-29T04:42:52;0.95;;;0.95;;
5058;SDS011;2548;52.050;11.036;2022-12-29T04:45:20;1.38;;;1.33;;
5058;SDS011;2548;52.050;11.036;2022-12-29T04:47:57;2.95;;;1.50;;
5058;SDS011;2548;52.050;11.036;2022-12-29T04:50:36;2.28;;;1.60;;
5058;SDS011;2548;52.050;11.036;2022-12-29T04:53:14;1.45;;;1.35;;
5058;SDS011;2548;52.050;11.036;2022-12-29T04:55:42;1.20;;;1.20;;
5058;SDS011;2548;52.050;11.036;2022-12-29T04:58:12;1.60;;;1.40;;
5058;SDS011;2548;52.050;11.036;2022-12-29T05:00:40;2.15;;;1.38;;
5058;SDS011;2548;52.050;11.036;2022-12-29T05:03:07;3.05;;;1.60;;
5058;SDS011;2548;52.050;11.036;2022-12-29T05:05:38;1.80;;;1.70;;
5058;SDS011;2548;52.050;11.036;2022-12-29T05:08:05;1.83;;;1.73;;
5058;SDS011;2548;52.050;11.036;2022-12-29T05:10:34;1.65;;;1.45;;
5058;SDS011;2548;52.050;11.036;2022-12-29T05:13:07;2.15;;;1.70;;
5058;SDS011;2548;52.050;11.036;2022-12-29T05:15:36;3.33;;;1.65;;
5058;SDS011;2548;52.050;11.036;2022-12-29T05:18:03;1.70;;;1.60;;
5058;SDS011;2548;52.050;11.036;2022-12-29T05:20:31;0.90;;;0.90;;
5058;SDS011;2548;52.050;11.036;2022-12-29T05:22:58;0.95;;;0.85;;
5058;SDS011;2548;52.050;11.036;2022-12-29T05:25:26;1.02;;;1.02;;
5058;SDS011;2548;52.050;11.036;2022-12-29T05:28:05;0.85;;;0.85;;
5058;SDS011;2548;52.050;11.036;2022-12-29T05:30:42;2.17;;;0.98;;
5058;SDS011;2548;52.050;11.036;2022-12-29T05:33:09;0.77;;;0.77;;
5058;SDS011;2548;52.050;11.036;2022-12-29T05:35:38;1.20;;;1.20;;
5058;SDS011;2548;52.050;11.036;2022-12-29T05:38:06;1.10;;;1.10;;
5058;SDS011;2548;52.050;11.036;2022-12-29T05:40:34;0.90;;;0.90;;
5058;SDS011;2548;52.050;11.036;2022-12-29T05:43:05;0.98;;;0.98;;
5058;SDS011;2548;52.050;11.036;2022-12-29T05:45:39;5.78;;;1.10;;
5058;SDS011;2548;52.050;11.036;2022-12-29T05:48:26;1.00;;;0.90;;
5058;SDS011;2548;52.050;11.036;2022-12-29T05:51:16;2.03;;;1.40;;
5058;SDS011;2548;52.050;11.036;2022-12-29T05:53:48;1.60;;;1.58;;
5058;SDS011;2548;52.050;11.036;2022-12-29T05:56:16;1.65;;;1.55;;
5058;SDS011;2548;52.050;11.036;2022-12-29T05:58:50;1.67;;;1.58;;
5058;SDS011;2548;52.050;11.036;2022-12-29T06:01:17;1.42;;;1.27;;
5058;SDS011;2548;52.050;11.036;2022-12-29T06:03:46;1.20;;;1.17;;
5058;SDS011;2548;52.050;11.036;2022-12-29T06:06:13;0.60;;;0.60;;
5058;SDS011;2548;52.050;11.036;2022-12-29T06:08:42;1.20;;;1.10;;
5058;SDS011;2548;52.050;11.036;2022-12-29T06:11:10;1.45;;;1.08;;
5058;SDS011;2548;52.050;11.036;2022-12-29T06:13:40;0.88;;;0.88;;
5058;SDS011;2548;52.050;11.036;2022-12-29T06:16:08;0.85;;;0.85;;
5058;SDS011;2548;52.050;11.036;2022-12-29T06:18:37;0.90;;;0.90;;
5058;SDS011;2548;52.050;11.036;2022-12-29T06:21:06;1.35;;;0.93;;
5058;SDS011;2548;52.050;11.036;2022-12-29T06:23:35;0.95;;;0.95;;
5058;SDS011;2548;52.050;11.036;2022-12-29T06:26:03;1.02;;;1.02;;
5058;SDS011;2548;52.050;11.036;2022-12-29T06:28:32;1.67;;;1.52;;
5058;SDS011;2548;52.050;11.036;2022-12-29T06:30:59;1.00;;;1.00;;
5058;SDS011;2548;52.050;11.036;2022-12-29T06:33:28;2.10;;;1.30;;
5058;SDS011;2548;52.050;11.036;2022-12-29T06:35:56;1.60;;;1.48;;
5058;SDS011;2548;52.050;11.036;2022-12-29T06:38:25;1.30;;;0.90;;
5058;SDS011;2548;52.050;11.036;2022-12-29T06:40:52;0.90;;;0.90;;
5058;SDS011;2548;52.050;11.036;2022-12-29T06:43:40;1.00;;;1.00;;
5058;SDS011;2548;52.050;11.036;2022-12-29T06:46:14;1.75;;;0.80;;
5058;SDS011;2548;52.050;11.036;2022-12-29T06:48:42;3.35;;;0.88;;
5058;SDS011;2548;52.050;11.036;2022-12-29T06:51:09;0.82;;;0.82;;
5058;SDS011;2548;52.050;11.036;2022-12-29T06:53:38;1.02;;;1.02;;
5058;SDS011;2548;52.050;11.036;2022-12-29T06:56:06;0.80;;;0.73;;
5058;SDS011;2548;52.050;11.036;2022-12-29T06:58:34;0.70;;;0.70;;
5058;SDS011;2548;52.050;11.036;2022-12-29T07:01:01;0.82;;;0.82;;
5058;SDS011;2548;52.050;11.036;2022-12-29T07:03:28;0.60;;;0.60;;
5058;SDS011;2548;52.050;11.036;2022-12-29T07:05:56;0.82;;;0.82;;
5058;SDS011;2548;52.050;11.036;2022-12-29T07:08:24;1.83;;;0.80;;
5058;SDS011;2548;52.050;11.036;2022-12-29T07:10:53;0.70;;;0.70;;
5058;SDS011;2548;52.050;11.036;2022-12-29T07:13:20;4.13;;;1.13;;
5058;SDS011;2548;52.050;11.036;2022-12-29T07:15:47;1.05;;;0.95;;
5058;SDS011;2548;52.050;11.036;2022-12-29T07:18:15;0.98;;;0.68;;
5058;SDS011;2548;52.050;11.036;2022-12-29T07:20:42;0.85;;;0.85;;
5058;SDS011;2548;52.050;11.036;2022-12-29T07:23:10;1.42;;;1.33;;
5058;SDS011;2548;52.050;11.036;2022-12-29T07:25:38;0.70;;;0.70;;
5058;SDS011;2548;52.050;11.036;2022-12-29T07:28:08;0.65;;;0.65;;
5058;SDS011;2548;52.050;11.036;2022-12-29T07:30:36;0.50;;;0.50;;
5058;SDS011;2548;52.050;11.036;2022-12-29T07:33:04;0.90;;;0.90;;
5058;SDS011;2548;52.050;11.036;2022-12-29T07:35:31;0.90;;;0.90;;
5058;SDS011;2548;52.050;11.036;2022-12-29T07:38:00;2.22;;;0.73;;
5058;SDS011;2548;52.050;11.036;2022-12-29T07:40:27;0.85;;;0.85;;
5058;SDS011;2548;52.050;11.036;2022-12-29T07:42:55;0.80;;;0.80;;
5058;SDS011;2548;52.050;11.036;2022-12-29T07:45:33;1.95;;;0.60;;
5058;SDS011;2548;52.050;11.036;2022-12-29T07:48:07;0.82;;;0.82;;
5058;SDS011;2548;52.050;11.036;2022-12-29T07:50:35;0.70;;;0.70;;
5058;SDS011;2548;52.050;11.036;2022-12-29T07:53:03;0.80;;;0.70;;
5058;SDS011;2548;52.050;11.036;2022-12-29T07:55:30;0.68;;;0.65;;
5058;SDS011;2548;52.050;11.036;2022-12-29T07:57:58;1.05;;;1.00;;
5058;SDS011;2548;52.050;11.036;2022-12-29T08:00:25;0.95;;;0.60;;
5058;SDS011;2548;52.050;11.036;2022-12-29T08:02:54;0.80;;;0.80;;
5058;SDS011;2548;52.050;11.036;2022-12-29T08:05:22;5.38;;;1.05;;
5058;SDS011;2548;52.050;11.036;2022-12-29T08:07:49;0.50;;;0.50;;
5058;SDS011;2548;52.050;11.036;2022-12-29T08:10:16;0.50;;;0.50;;
5058;SDS011;2548;52.050;11.036;2022-12-29T08:12:44;0.50;;;0.50;;
5058;SDS011;2548;52.050;11.036;2022-12-29T08:15:11;1.50;;;0.60;;
5058;SDS011;2548;52.050;11.036;2022-12-29T08:17:39;0.55;;;0.55;;
5058;SDS011;2548;52.050;11.036;2022-12-29T08:20:08;0.60;;;0.60;;
5058;SDS011;2548;52.050;11.036;2022-12-29T08:22:36;0.60;;;0.60;;
5058;SDS011;2548;52.050;11.036;2022-12-29T08:25:04;2.85;;;0.70;;
5058;SDS011;2548;52.050;11.036;2022-12-29T08:27:31;0.50;;;0.40;;
5058;SDS011;2548;52.050;11.036;2022-12-29T08:29:59;1.88;;;0.60;;
5058;SDS011;2548;52.050;11.036;2022-12-29T08:32:27;4.13;;;0.70;;
5058;SDS011;2548;52.050;11.036;2022-12-29T08:34:54;0.50;;;0.50;;
5058;SDS011;2548;52.050;11.036;2022-12-29T08:37:23;2.05;;;0.82;;
5058;SDS011;2548;52.050;11.036;2022-12-29T08:39:51;0.50;;;0.50;;
5058;SDS011;2548;52.050;11.036;2022-12-29T08:42:18;1.40;;;1.10;;
5058;SDS011;2548;52.050;11.036;2022-12-29T08:44:46;0.55;;;0.55;;
5058;SDS011;2548;52.050;11.036;2022-12-29T08:47:13;0.70;;;0.68;;
5058;SDS011;2548;52.050;11.036;2022-12-29T08:49:40;2.72;;;0.80;;
5058;SDS011;2548;52.050;11.036;2022-12-29T08:52:08;1.20;;;0.85;;
5058;SDS011;2548;52.050;11.036;2022-12-29T08:54:37;0.70;;;0.70;;
5058;SDS011;2548;52.050;11.036;2022-12-29T08:57:05;0.70;;;0.70;;
5058;SDS011;2548;52.050;11.036;2022-12-29T08:59:38;3.03;;;0.93;;
5058;SDS011;2548;52.050;11.036;2022-12-29T09:02:05;2.63;;;0.88;;
5058;SDS011;2548;52.050;11.036;2022-12-29T09:04:36;0.60;;;0.60;;
5058;SDS011;2548;52.050;11.036;2022-12-29T09:07:04;1.95;;;0.70;;
5058;SDS011;2548;52.050;11.036;2022-12-29T09:09:31;1.88;;;0.60;;
5058;SDS011;2548;52.050;11.036;2022-12-29T09:12:01;2.22;;;0.73;;
5058;SDS011;2548;52.050;11.036;2022-12-29T09:14:28;1.20;;;0.70;;
5058;SDS011;2548;52.050;11.036;2022-12-29T09:16:56;3.78;;;0.70;;
5058;SDS011;2548;52.050;11.036;2022-12-29T09:19:40;0.90;;;0.90;;
5058;SDS011;2548;52.050;11.036;2022-12-29T09:22:08;0.80;;;0.80;;
5058;SDS011;2548;52.050;11.036;2022-12-29T09:24:36;0.70;;;0.70;;
5058;SDS011;2548;52.050;11.036;2022-12-29T09:27:04;0.70;;;0.70;;
5058;SDS011;2548;52.050;11.036;2022-12-29T09:29:32;0.70;;;0.70;;
5058;SDS011;2548;52.050;11.036;2022-12-29T09:31:59;1.05;;;0.98;;
5058;SDS011;2548;52.050;11.036;2022-12-29T09:34:27;0.80;;;0.80;;
5058;SDS011;2548;52.050;11.036;2022-12-29T09:36:55;1.15;;;0.75;;
5058;SDS011;2548;52.050;11.036;2022-12-29T09:39:23;1.13;;;0.75;;
5058;SDS011;2548;52.050;11.036;2022-12-29T09:41:52;0.77;;;0.77;;
5058;SDS011;2548;52.050;11.036;2022-12-29T09:44:31;0.88;;;0.88;;
5058;SDS011;2548;52.050;11.036;2022-12-29T09:47:10;0.50;;;0.50;;
5058;SDS011;2548;52.050;11.036;2022-12-29T09:49:40;0.70;;;0.70;;
5058;SDS011;2548;52.050;11.036;2022-12-29T09:52:12;0.60;;;0.60;;
5058;SDS011;2548;52.050;11.036;2022-12-29T09:54:45;0.50;;;0.50;;
5058;SDS011;2548;52.050;11.036;2022-12-29T09:57:18;0.60;;;0.60;;
5058;SDS011;2548;52.050;11.036;2022-12-29T09:59:52;0.60;;;0.50;;
5058;SDS011;2548;52.050;11.036;2022-12-29T10:02:33;0.93;;;0.70;;
5058;SDS011;2548;52.050;11.036;2022-12-29T10:05:12;3.83;;;0.50;;
5058;SDS011;2548;52.050;11.036;2022-12-29T10:07:48;1.23;;;0.45;;
5058;SDS011;2548;52.050;11.036;2022-12-29T10:10:28;0.70;;;0.60;;
5058;SDS011;2548;52.050;11.036;2022-12-29T10:13:07;7.78;;;0.40;;
5058;SDS011;2548;52.050;11.036;2022-12-29T10:15:52;1.25;;;0.70;;
5058;SDS011;2548;52.050;11.036;2022-12-29T10:18:37;1.30;;;0.52;;
5058;SDS011;2548;52.050;11.036;2022-12-29T10:21:27;0.50;;;0.50;;
5058;SDS011;2548;52.050;11.036;2022-12-29T10:24:04;0.85;;;0.65;;
5058;SDS011;2548;52.050;11.036;2022-12-29T10:26:38;0.57;;;0.47;;
5058;SDS011;2548;52.050;11.036;2022-12-29T10:29:11;1.77;;;0.60;;
5058;SDS011;2548;52.050;11.036;2022-12-29T10:31:44;0.60;;;0.45;;
5058;SDS011;2548;52.050;11.036;2022-12-29T10:34:16;0.50;;;0.50;;
5058;SDS011;2548;52.050;11.036;2022-12-29T10:36:48;1.83;;;0.60;;
5058;SDS011;2548;52.050;11.036;2022-12-29T10:39:19;0.50;;;0.50;;
5058;SDS011;2548;52.050;11.036;2022-12-29T10:41:55;0.50;;;0.50;;
5058;SDS011;2548;52.050;11.036;2022-12-29T10:44:29;0.50;;;0.50;;
5058;SDS011;2548;52.050;11.036;2022-12-29T10:47:04;0.80;;;0.52;;
5058;SDS011;2548;52.050;11.036;2022-12-29T10:49:35;1.63;;;0.50;;
5058;SDS011;2548;52.050;11.036;2022-12-29T10:52:06;0.70;;;0.70;;
5058;SDS011;2548;52.050;11.036;2022-12-29T10:54:37;3.17;;;0.60;;
5058;SDS011;2548;52.050;11.036;2022-12-29T10:57:13;0.60;;;0.60;;
5058;SDS011;2548;52.050;11.036;2022-12-29T10:59:47;0.60;;;0.60;;
5058;SDS011;2548;52.050;11.036;2022-12-29T11:02:21;0.70;;;0.50;;
5058;SDS011;2548;52.050;11.036;2022-12-29T11:05:10;1.00;;;0.60;;
5058;SDS011;2548;52.050;11.036;2022-12-29T11:07:46;0.50;;;0.50;;
5058;SDS011;2548;52.050;11.036;2022-12-29T11:10:18;0.60;;;0.55;;
5058;SDS011;2548;52.050;11.036;2022-12-29T11:12:54;1.88;;;0.98;;
5058;SDS011;2548;52.050;11.036;2022-12-29T11:15:23;1.73;;;0.80;;
5058;SDS011;2548;52.050;11.036;2022-12-29T11:17:53;0.85;;;0.85;;
5058;SDS011;2548;52.050;11.036;2022-12-29T11:20:27;1.75;;;1.65;;
5058;SDS011;2548;52.050;11.036;2022-12-29T11:23:00;0.90;;;0.90;;
5058;SDS011;2548;52.050;11.036;2022-12-29T11:25:28;2.30;;;2.15;;
5058;SDS011;2548;52.050;11.036;2022-12-29T11:27:57;3.47;;;2.00;;
5058;SDS011;2548;52.050;11.036;2022-12-29T11:30:27;1.73;;;0.90;;
5058;SDS011;2548;52.050;11.036;2022-12-29T11:32:57;1.55;;;1.45;;
5058;SDS011;2548;52.050;11.036;2022-12-29T11:35:30;3.20;;;1.42;;
5058;SDS011;2548;52.050;11.036;2022-12-29T11:38:00;4.40;;;0.85;;
5058;SDS011;2548;52.050;11.036;2022-12-29T11:40:28;1.33;;;1.20;;
5058;SDS011;2548;52.050;11.036;2022-12-29T11:42:57;0.98;;;0.98;;
5058;SDS011;2548;52.050;11.036;2022-12-29T11:45:29;0.70;;;0.70;;
5058;SDS011;2548;52.050;11.036;2022-12-29T11:48:01;0.68;;;0.60;;
5058;SDS011;2548;52.050;11.036;2022-12-29T11:50:34;3.42;;;0.70;;
5058;SDS011;2548;52.050;11.036;2022-12-29T11:53:06;1.80;;;1.05;;
5058;SDS011;2548;52.050;11.036;2022-12-29T11:55:41;3.22;;;0.70;;
5058;SDS011;2548;52.050;11.036;2022-12-29T11:58:18;2.80;;;0.70;;
5058;SDS011;2548;52.050;11.036;2022-12-29T12:00:45;0.70;;;0.60;;
5058;SDS011;2548;52.050;11.036;2022-12-29T12:03:17;1.40;;;0.70;;
5058;SDS011;2548;52.050;11.036;2022-12-29T12:05:48;0.80;;;0.80;;
5058;SDS011;2548;52.050;11.036;2022-12-29T12:08:20;2.97;;;0.93;;
5058;SDS011;2548;52.050;11.036;2022-12-29T12:10:56;0.70;;;0.70;;
5058;SDS011;2548;52.050;11.036;2022-12-29T12:13:29;2.55;;;0.95;;
5058;SDS011;2548;52.050;11.036;2022-12-29T12:16:02;0.80;;;0.80;;
5058;SDS011;2548;52.050;11.036;2022-12-29T12:18:39;3.78;;;1.27;;
5058;SDS011;2548;52.050;11.036;2022-12-29T12:21:16;1.75;;;1.10;;
5058;SDS011;2548;52.050;11.036;2022-12-29T12:23:56;0.82;;;0.73;;
5058;SDS011;2548;52.050;11.036;2022-12-29T12:26:59;0.70;;;0.70;;
5058;SDS011;2548;52.050;11.036;2022-12-29T12:29:35;1.17;;;0.93;;
5058;SDS011;2548;52.050;11.036;2022-12-29T12:32:10;2.17;;;0.90;;
5058;SDS011;2548;52.050;11.036;2022-12-29T12:34:42;0.90;;;0.90;;
5058;SDS011;2548;52.050;11.036;2022-12-29T12:40:14;2.90;;;1.23;;
5058;SDS011;2548;52.050;11.036;2022-12-29T12:43:12;2.30;;;2.10;;
5058;SDS011;2548;52.050;11.036;2022-12-29T12:46:12;3.60;;;0.80;;
5058;SDS011;2548;52.050;11.036;2022-12-29T12:52:16;3.17;;;0.90;;
5058;SDS011;2548;52.050;11.036;2022-12-29T12:54:58;1.92;;;1.10;;
5058;SDS011;2548;52.050;11.036;2022-12-29T12:57:38;3.90;;;0.70;;
5058;SDS011;2548;52.050;11.036;2022-12-29T13:00:16;1.60;;;0.85;;
5058;SDS011;2548;52.050;11.036;2022-12-29T13:02:49;4.85;;;1.00;;
5058;SDS011;2548;52.050;11.036;2022-12-29T13:05:31;1.63;;;0.95;;
5058;SDS011;2548;52.050;11.036;2022-12-29T13:08:18;2.08;;;0.98;;
5058;SDS011;2548;52.050;11.036;2022-12-29T13:11:06;2.70;;;0.80;;
5058;SDS011;2548;52.050;11.036;2022-12-29T13:13:50;1.92;;;1.10;;
5058;SDS011;2548;52.050;11.036;2022-12-29T13:16:29;8.52;;;0.98;;
5058;SDS011;2548;52.050;11.036;2022-12-29T13:19:04;0.90;;;0.73;;
5058;SDS011;2548;52.050;11.036;2022-12-29T13:21:43;1.35;;;0.63;;
5058;SDS011;2548;52.050;11.036;2022-12-29T13:24:24;1.98;;;1.35;;
5058;SDS011;2548;52.050;11.036;2022-12-29T13:26:58;2.25;;;1.05;;
5058;SDS011;2548;52.050;11.036;2022-12-29T13:29:36;2.38;;;0.70;;
5058;SDS011;2548;52.050;11.036;2022-12-29T13:32:14;5.20;;;1.27;;
5058;SDS011;2548;52.050;11.036;2022-12-29T13:34:53;0.90;;;0.70;;
5058;SDS011;2548;52.050;11.036;2022-12-29T13:37:29;3.45;;;0.90;;
5058;SDS011;2548;52.050;11.036;2022-12-29T13:40:03;11.05;;;0.90;;
5058;SDS011;2548;52.050;11.036;2022-12-29T13:42:41;1.27;;;1.05;;
5058;SDS011;2548;52.050;11.036;2022-12-29T13:45:11;2.67;;;1.30;;
5058;SDS011;2548;52.050;11.036;2022-12-29T13:47:44;10.90;;;1.80;;
5058;SDS011;2548;52.050;11.036;2022-12-29T13:50:18;1.40;;;1.20;;
5058;SDS011;2548;52.050;11.036;2022-12-29T13:52:48;1.60;;;1.50;;
5058;SDS011;2548;52.050;11.036;2022-12-29T13:55:25;1.23;;;0.90;;
5058;SDS011;2548;52.050;11.036;2022-12-29T13:57:58;1.77;;;1.00;;
5058;SDS011;2548;52.050;11.036;2022-12-29T14:00:33;1.55;;;1.45;;
5058;SDS011;2548;52.050;11.036;2022-12-29T14:03:12;3.20;;;1.88;;
5058;SDS011;2548;52.050;11.036;2022-12-29T14:06:02;4.32;;;2.15;;
5058;SDS011;2548;52.050;11.036;2022-12-29T14:08:38;3.55;;;2.70;;
5058;SDS011;2548;52.050;11.036;2022-12-29T14:11:08;4.03;;;3.30;;
5058;SDS011;2548;52.050;11.036;2022-12-29T14:13:37;6.80;;;3.85;;
5058;SDS011;2548;52.050;11.036;2022-12-29T14:16:24;5.43;;;3.42;;
5058;SDS011;2548;52.050;11.036;2022-12-29T14:18:54;10.77;;;3.70;;
5058;SDS011;2548;52.050;11.036;2022-12-29T14:21:24;4.93;;;2.33;;
5058;SDS011;2548;52.050;11.036;2022-12-29T14:24:02;3.03;;;2.40;;
5058;SDS011;2548;52.050;11.036;2022-12-29T14:33:13;3.95;;;1.80;;
5058;SDS011;2548;52.050;11.036;2022-12-29T14:35:42;2.95;;;1.70;;
5058;SDS011;2548;52.050;11.036;2022-12-29T14:38:18;1.88;;;1.00;;
5058;SDS011;2548;52.050;11.036;2022-12-29T14:41:24;4.80;;;1.55;;
5058;SDS011;2548;52.050;11.036;2022-12-29T14:43:59;4.03;;;1.40;;
5058;SDS011;2548;52.050;11.036;2022-12-29T14:46:42;5.35;;;1.60;;
5058;SDS011;2548;52.050;11.036;2022-12-29T14:49:17;3.38;;;1.10;;
5058;SDS011;2548;52.050;11.036;2022-12-29T14:51:47;5.25;;;1.40;;
5058;SDS011;2548;52.050;11.036;2022-12-29T14:57:14;3.83;;;1.10;;
5058;SDS011;2548;52.050;11.036;2022-12-29T14:59:52;1.30;;;0.85;;
5058;SDS011;2548;52.050;11.036;2022-12-29T15:02:23;2.20;;;1.40;;
5058;SDS011;2548;52.050;11.036;2022-12-29T15:04:58;2.20;;;1.10;;
5058;SDS011;2548;52.050;11.036;2022-12-29T15:07:27;2.42;;;1.13;;
5058;SDS011;2548;52.050;11.036;2022-12-29T15:09:58;2.58;;;1.05;;
5058;SDS011;2548;52.050;11.036;2022-12-29T15:12:33;15.50;;;1.40;;
5058;SDS011;2548;52.050;11.036;2022-12-29T15:15:17;1.88;;;0.80;;
5058;SDS011;2548;52.050;11.036;2022-12-29T15:17:46;1.05;;;0.95;;
5058;SDS011;2548;52.050;11.036;2022-12-29T15:20:17;1.65;;;1.23;;
5058;SDS011;2548;52.050;11.036;2022-12-29T15:22:49;2.03;;;1.27;;
5058;SDS011;2548;52.050;11.036;2022-12-29T15:25:20;2.85;;;0.90;;
5058;SDS011;2548;52.050;11.036;2022-12-29T15:27:48;4.63;;;1.35;;
5058;SDS011;2548;52.050;11.036;2022-12-29T15:30:18;4.95;;;1.17;;
5058;SDS011;2548;52.050;11.036;2022-12-29T15:32:46;1.60;;;1.20;;
5058;SDS011;2548;52.050;11.036;2022-12-29T15:35:23;4.50;;;1.00;;
5058;SDS011;2548;52.050;11.036;2022-12-29T15:37:53;1.05;;;0.95;;
5058;SDS011;2548;52.050;11.036;2022-12-29T15:40:22;6.40;;;1.40;;
5058;SDS011;2548;52.050;11.036;2022-12-29T15:42:58;5.68;;;1.38;;
5058;SDS011;2548;52.050;11.036;2022-12-29T15:45:40;4.18;;;1.50;;
5058;SDS011;2548;52.050;11.036;2022-12-29T15:48:10;2.10;;;1.20;;
5058;SDS011;2548;52.050;11.036;2022-12-29T15:50:45;2.85;;;1.13;;
5058;SDS011;2548;52.050;11.036;2022-12-29T15:53:16;2.97;;;1.35;;
5058;SDS011;2548;52.050;11.036;2022-12-29T15:55:50;1.85;;;1.15;;
5058;SDS011;2548;52.050;11.036;2022-12-29T15:58:19;3.95;;;1.92;;